sensor_id;sensor_type;location;lat;lon;timestamp;P1;durP1;ratioP1;P2;durP2;ratioP2
85829;SDS011;76277;49.212;16.680;2024-03-06T00:00:14;52.80;;;47.00;;
85829;SDS011;76277;49.212;16.680;2024-03-06T00:02:58;52.80;;;47.00;;
85829;SDS011;76277;49.212;16.680;2024-03-06T00:05:43;52.80;;;47.00;;
85829;SDS011;76277;49.212;16.680;2024-03-06T00:08:27;52.80;;;47.00;;
85829;SDS011;76277;49.212;16.680;2024-03-06T00:11:12;44.10;;;37.00;;
85829;SDS011;76277;49.212;16.680;2024-03-06T00:13:57;44.10;;;37.00;;
85829;SDS011;76277;49.212;16.680;2024-03-06T00:16:42;44.10;;;37.00;;
85829;SDS011;76277;49.212;16.680;2024-03-06T00:19:26;44.10;;;37.00;;
85829;SDS011;76277;49.212;16.680;2024-03-06T00:22:11;44.10;;;37.00;;
85829;SDS011;76277;49.212;16.680;2024-03-06T00:24:55;44.10;;;37.00;;
85829;SDS011;76277;49.212;16.680;2024-03-06T00:27:40;42.70;;;37.90;;
85829;SDS011;76277;49.212;16.680;2024-03-06T00:30:25;42.70;;;37.90;;
85829;SDS011;76277;49.212;16.680;2024-03-06T00:33:09;42.70;;;37.90;;
85829;SDS011;76277;49.212;16.680;2024-03-06T00:35:54;42.70;;;37.90;;
85829;SDS011;76277;49.212;16.680;2024-03-06T00:38:39;42.70;;;37.90;;
85829;SDS011;76277;49.212;16.680;2024-03-06T00:41:23;41.00;;;36.40;;
85829;SDS011;76277;49.212;16.680;2024-03-06T00:44:08;41.00;;;36.40;;
85829;SDS011;76277;49.212;16.680;2024-03-06T00:46:53;41.00;;;36.40;;
85829;SDS011;76277;49.212;16.680;2024-03-06T00:49:37;41.00;;;36.40;;
85829;SDS011;76277;49.212;16.680;2024-03-06T00:52:22;41.00;;;36.40;;
85829;SDS011;76277;49.212;16.680;2024-03-06T00:55:07;38.00;;;33.70;;
85829;SDS011;76277;49.212;16.680;2024-03-06T00:57:51;38.00;;;33.70;;
85829;SDS011;76277;49.212;16.680;2024-03-06T01:00:36;38.00;;;33.70;;
85829;SDS011;76277;49.212;16.680;2024-03-06T01:03:21;38.00;;;33.70;;
85829;SDS011;76277;49.212;16.680;2024-03-06T01:06:06;38.00;;;33.70;;
85829;SDS011;76277;49.212;16.680;2024-03-06T01:08:50;38.00;;;33.70;;
85829;SDS011;76277;49.212;16.680;2024-03-06T01:11:35;37.70;;;33.50;;
85829;SDS011;76277;49.212;16.680;2024-03-06T01:14:19;37.70;;;33.50;;
85829;SDS011;76277;49.212;16.680;2024-03-06T01:17:04;37.70;;;33.50;;
85829;SDS011;76277;49.212;16.680;2024-03-06T01:19:49;37.70;;;33.50;;
85829;SDS011;76277;49.212;16.680;2024-03-06T01:22:33;37.70;;;33.50;;
85829;SDS011;76277;49.212;16.680;2024-03-06T01:25:19;36.40;;;32.30;;
85829;SDS011;76277;49.212;16.680;2024-03-06T01:28:03;36.40;;;32.30;;
85829;SDS011;76277;49.212;16.680;2024-03-06T01:30:48;36.40;;;32.30;;
85829;SDS011;76277;49.212;16.680;2024-03-06T01:33:32;36.40;;;32.30;;
85829;SDS011;76277;49.212;16.680;2024-03-06T01:36:17;36.40;;;32.30;;
85829;SDS011;76277;49.212;16.680;2024-03-06T01:39:02;36.40;;;32.30;;
85829;SDS011;76277;49.212;16.680;2024-03-06T01:41:46;30.70;;;27.30;;
85829;SDS011;76277;49.212;16.680;2024-03-06T01:47:16;30.70;;;27.30;;
85829;SDS011;76277;49.212;16.680;2024-03-06T01:50:01;30.70;;;27.30;;
85829;SDS011;76277;49.212;16.680;2024-03-06T01:52:46;30.70;;;27.30;;
85829;SDS011;76277;49.212;16.680;2024-03-06T01:55:29;29.00;;;25.70;;
85829;SDS011;76277;49.212;16.680;2024-03-06T01:58:14;29.00;;;25.70;;
85829;SDS011;76277;49.212;16.680;2024-03-06T02:01:00;29.00;;;25.70;;
85829;SDS011;76277;49.212;16.680;2024-03-06T02:03:44;29.00;;;25.70;;
85829;SDS011;76277;49.212;16.680;2024-03-06T02:06:29;29.00;;;25.70;;
85829;SDS011;76277;49.212;16.680;2024-03-06T02:09:13;29.00;;;25.70;;
85829;SDS011;76277;49.212;16.680;2024-03-06T02:11:57;33.10;;;29.40;;
85829;SDS011;76277;49.212;16.680;2024-03-06T02:14:43;33.10;;;29.40;;
85829;SDS011;76277;49.212;16.680;2024-03-06T02:17:27;33.10;;;29.40;;
85829;SDS011;76277;49.212;16.680;2024-03-06T02:20:13;33.10;;;29.40;;
85829;SDS011;76277;49.212;16.680;2024-03-06T02:22:56;33.10;;;29.40;;
85829;SDS011;76277;49.212;16.680;2024-03-06T02:25:40;31.60;;;28.10;;
85829;SDS011;76277;49.212;16.680;2024-03-06T02:28:25;31.60;;;28.10;;
85829;SDS011;76277;49.212;16.680;2024-03-06T02:31:10;31.60;;;28.10;;
85829;SDS011;76277;49.212;16.680;2024-03-06T02:33:54;31.60;;;28.10;;
85829;SDS011;76277;49.212;16.680;2024-03-06T02:36:39;31.60;;;28.10;;
85829;SDS011;76277;49.212;16.680;2024-03-06T02:39:24;31.60;;;28.10;;
85829;SDS011;76277;49.212;16.680;2024-03-06T02:42:08;36.10;;;32.10;;
85829;SDS011;76277;49.212;16.680;2024-03-06T02:44:53;36.10;;;32.10;;
85829;SDS011;76277;49.212;16.680;2024-03-06T02:47:38;36.10;;;32.10;;
85829;SDS011;76277;49.212;16.680;2024-03-06T02:50:22;36.10;;;32.10;;
85829;SDS011;76277;49.212;16.680;2024-03-06T02:53:07;36.10;;;32.10;;
85829;SDS011;76277;49.212;16.680;2024-03-06T02:55:52;34.10;;;30.30;;
85829;SDS011;76277;49.212;16.680;2024-03-06T02:58:37;34.10;;;30.30;;
85829;SDS011;76277;49.212;16.680;2024-03-06T03:01:21;34.10;;;30.30;;
85829;SDS011;76277;49.212;16.680;2024-03-06T03:04:06;34.10;;;30.30;;
85829;SDS011;76277;49.212;16.680;2024-03-06T03:06:50;34.10;;;30.30;;
85829;SDS011;76277;49.212;16.680;2024-03-06T03:09:35;34.10;;;30.30;;
85829;SDS011;76277;49.212;16.680;2024-03-06T03:12:20;39.50;;;32.30;;
85829;SDS011;76277;49.212;16.680;2024-03-06T03:15:05;39.50;;;32.30;;
85829;SDS011;76277;49.212;16.680;2024-03-06T03:17:49;39.50;;;32.30;;
85829;SDS011;76277;49.212;16.680;2024-03-06T03:20:34;39.50;;;32.30;;
85829;SDS011;76277;49.212;16.680;2024-03-06T03:23:19;39.50;;;32.30;;
85829;SDS011;76277;49.212;16.680;2024-03-06T03:26:03;35.10;;;31.20;;
85829;SDS011;76277;49.212;16.680;2024-03-06T03:28:48;35.10;;;31.20;;
85829;SDS011;76277;49.212;16.680;2024-03-06T03:31:33;35.10;;;31.20;;
85829;SDS011;76277;49.212;16.680;2024-03-06T03:34:17;35.10;;;31.20;;
85829;SDS011;76277;49.212;16.680;2024-03-06T03:37:02;35.10;;;31.20;;
85829;SDS011;76277;49.212;16.680;2024-03-06T03:39:47;35.10;;;31.20;;
85829;SDS011;76277;49.212;16.680;2024-03-06T03:42:31;29.70;;;26.40;;
85829;SDS011;76277;49.212;16.680;2024-03-06T03:45:16;29.70;;;26.40;;
85829;SDS011;76277;49.212;16.680;2024-03-06T03:48:01;29.70;;;26.40;;
85829;SDS011;76277;49.212;16.680;2024-03-06T03:50:45;29.70;;;26.40;;
85829;SDS011;76277;49.212;16.680;2024-03-06T03:53:30;29.70;;;26.40;;
85829;SDS011;76277;49.212;16.680;2024-03-06T03:56:14;31.20;;;27.80;;
85829;SDS011;76277;49.212;16.680;2024-03-06T03:59:00;31.20;;;27.80;;
85829;SDS011;76277;49.212;16.680;2024-03-06T04:01:45;31.20;;;27.80;;
85829;SDS011;76277;49.212;16.680;2024-03-06T04:04:28;31.20;;;27.80;;
85829;SDS011;76277;49.212;16.680;2024-03-06T04:07:13;31.20;;;27.80;;
85829;SDS011;76277;49.212;16.680;2024-03-06T04:09:58;31.20;;;27.80;;
85829;SDS011;76277;49.212;16.680;2024-03-06T04:12:43;35.50;;;31.60;;
85829;SDS011;76277;49.212;16.680;2024-03-06T04:15:27;35.50;;;31.60;;
85829;SDS011;76277;49.212;16.680;2024-03-06T04:18:12;35.50;;;31.60;;
85829;SDS011;76277;49.212;16.680;2024-03-06T04:20:57;35.50;;;31.60;;
85829;SDS011;76277;49.212;16.680;2024-03-06T04:23:41;35.50;;;31.60;;
85829;SDS011;76277;49.212;16.680;2024-03-06T04:26:26;30.20;;;26.90;;
85829;SDS011;76277;49.212;16.680;2024-03-06T04:31:55;30.20;;;26.90;;
85829;SDS011;76277;49.212;16.680;2024-03-06T04:34:40;30.20;;;26.90;;
85829;SDS011;76277;49.212;16.680;2024-03-06T04:37:24;30.20;;;26.90;;
85829;SDS011;76277;49.212;16.680;2024-03-06T04:40:09;30.20;;;26.90;;
85829;SDS011;76277;49.212;16.680;2024-03-06T04:42:54;36.20;;;32.20;;
85829;SDS011;76277;49.212;16.680;2024-03-06T04:45:39;36.20;;;32.20;;
85829;SDS011;76277;49.212;16.680;2024-03-06T04:48:23;36.20;;;32.20;;
85829;SDS011;76277;49.212;16.680;2024-03-06T04:51:08;36.20;;;32.20;;
85829;SDS011;76277;49.212;16.680;2024-03-06T04:53:52;36.20;;;32.20;;
85829;SDS011;76277;49.212;16.680;2024-03-06T04:56:37;37.00;;;32.90;;
85829;SDS011;76277;49.212;16.680;2024-03-06T04:59:22;37.00;;;32.90;;
85829;SDS011;76277;49.212;16.680;2024-03-06T05:02:06;37.00;;;32.90;;
85829;SDS011;76277;49.212;16.680;2024-03-06T05:04:51;37.00;;;32.90;;
85829;SDS011;76277;49.212;16.680;2024-03-06T05:07:36;37.00;;;32.90;;
85829;SDS011;76277;49.212;16.680;2024-03-06T05:10:21;37.00;;;32.90;;
85829;SDS011;76277;49.212;16.680;2024-03-06T05:13:05;34.70;;;30.80;;
85829;SDS011;76277;49.212;16.680;2024-03-06T05:15:50;34.70;;;30.80;;
85829;SDS011;76277;49.212;16.680;2024-03-06T05:18:35;34.70;;;30.80;;
85829;SDS011;76277;49.212;16.680;2024-03-06T05:21:20;34.70;;;30.80;;
85829;SDS011;76277;49.212;16.680;2024-03-06T05:24:04;34.70;;;30.80;;
85829;SDS011;76277;49.212;16.680;2024-03-06T05:26:48;40.80;;;33.60;;
85829;SDS011;76277;49.212;16.680;2024-03-06T05:29:33;40.80;;;33.60;;
85829;SDS011;76277;49.212;16.680;2024-03-06T05:32:18;40.80;;;33.60;;
85829;SDS011;76277;49.212;16.680;2024-03-06T05:35:03;40.80;;;33.60;;
85829;SDS011;76277;49.212;16.680;2024-03-06T05:37:47;40.80;;;33.60;;
85829;SDS011;76277;49.212;16.680;2024-03-06T05:40:32;40.80;;;33.60;;
85829;SDS011;76277;49.212;16.680;2024-03-06T05:43:16;44.30;;;39.40;;
85829;SDS011;76277;49.212;16.680;2024-03-06T05:46:01;44.30;;;39.40;;
85829;SDS011;76277;49.212;16.680;2024-03-06T05:48:46;44.30;;;39.40;;
85829;SDS011;76277;49.212;16.680;2024-03-06T05:51:30;44.30;;;39.40;;
85829;SDS011;76277;49.212;16.680;2024-03-06T05:54:15;44.30;;;39.40;;
85829;SDS011;76277;49.212;16.680;2024-03-06T05:57:00;39.50;;;35.10;;
85829;SDS011;76277;49.212;16.680;2024-03-06T05:59:45;39.50;;;35.10;;
85829;SDS011;76277;49.212;16.680;2024-03-06T06:02:29;39.50;;;35.10;;
85829;SDS011;76277;49.212;16.680;2024-03-06T06:05:14;39.50;;;35.10;;
85829;SDS011;76277;49.212;16.680;2024-03-06T06:07:58;39.50;;;35.10;;
85829;SDS011;76277;49.212;16.680;2024-03-06T06:10:43;39.50;;;35.10;;
85829;SDS011;76277;49.212;16.680;2024-03-06T06:13:28;44.70;;;39.80;;
85829;SDS011;76277;49.212;16.680;2024-03-06T06:16:12;44.70;;;39.80;;
85829;SDS011;76277;49.212;16.680;2024-03-06T06:18:57;44.70;;;39.80;;
85829;SDS011;76277;49.212;16.680;2024-03-06T06:21:42;44.70;;;39.80;;
85829;SDS011;76277;49.212;16.680;2024-03-06T06:24:26;44.70;;;39.80;;
85829;SDS011;76277;49.212;16.680;2024-03-06T06:27:11;42.80;;;38.00;;
85829;SDS011;76277;49.212;16.680;2024-03-06T06:29:56;42.80;;;38.00;;
85829;SDS011;76277;49.212;16.680;2024-03-06T06:32:41;42.80;;;38.00;;
85829;SDS011;76277;49.212;16.680;2024-03-06T06:35:25;42.80;;;38.00;;
85829;SDS011;76277;49.212;16.680;2024-03-06T06:38:10;42.80;;;38.00;;
85829;SDS011;76277;49.212;16.680;2024-03-06T06:40:55;42.80;;;38.00;;
85829;SDS011;76277;49.212;16.680;2024-03-06T06:43:39;45.60;;;40.50;;
85829;SDS011;76277;49.212;16.680;2024-03-06T06:46:24;45.60;;;40.50;;
85829;SDS011;76277;49.212;16.680;2024-03-06T06:49:08;45.60;;;40.50;;
85829;SDS011;76277;49.212;16.680;2024-03-06T06:51:53;45.60;;;40.50;;
85829;SDS011;76277;49.212;16.680;2024-03-06T06:54:38;45.60;;;40.50;;
85829;SDS011;76277;49.212;16.680;2024-03-06T06:57:22;46.10;;;41.00;;
85829;SDS011;76277;49.212;16.680;2024-03-06T07:02:52;46.10;;;41.00;;
85829;SDS011;76277;49.212;16.680;2024-03-06T07:05:37;46.10;;;41.00;;
85829;SDS011;76277;49.212;16.680;2024-03-06T07:08:21;46.10;;;41.00;;
85829;SDS011;76277;49.212;16.680;2024-03-06T07:11:06;46.10;;;41.00;;
85829;SDS011;76277;49.212;16.680;2024-03-06T07:13:50;47.80;;;42.40;;
85829;SDS011;76277;49.212;16.680;2024-03-06T07:16:42;47.80;;;42.40;;
85829;SDS011;76277;49.212;16.680;2024-03-06T07:19:20;47.80;;;42.40;;
85829;SDS011;76277;49.212;16.680;2024-03-06T07:22:05;47.80;;;42.40;;
85829;SDS011;76277;49.212;16.680;2024-03-06T07:24:49;47.80;;;42.40;;
85829;SDS011;76277;49.212;16.680;2024-03-06T07:27:33;38.00;;;33.80;;
85829;SDS011;76277;49.212;16.680;2024-03-06T07:30:19;38.00;;;33.80;;
85829;SDS011;76277;49.212;16.680;2024-03-06T07:33:03;38.00;;;33.80;;
85829;SDS011;76277;49.212;16.680;2024-03-06T07:35:48;38.00;;;33.80;;
85829;SDS011;76277;49.212;16.680;2024-03-06T07:38:32;38.00;;;33.80;;
85829;SDS011;76277;49.212;16.680;2024-03-06T07:41:17;38.00;;;33.80;;
85829;SDS011;76277;49.212;16.680;2024-03-06T07:44:02;37.80;;;30.60;;
85829;SDS011;76277;49.212;16.680;2024-03-06T07:46:46;37.80;;;30.60;;
85829;SDS011;76277;49.212;16.680;2024-03-06T07:49:31;37.80;;;30.60;;
85829;SDS011;76277;49.212;16.680;2024-03-06T07:52:16;37.80;;;30.60;;
85829;SDS011;76277;49.212;16.680;2024-03-06T07:55:00;37.80;;;30.60;;
85829;SDS011;76277;49.212;16.680;2024-03-06T07:57:45;32.20;;;28.60;;
85829;SDS011;76277;49.212;16.680;2024-03-06T08:00:30;32.20;;;28.60;;
85829;SDS011;76277;49.212;16.680;2024-03-06T08:03:14;32.20;;;28.60;;
85829;SDS011;76277;49.212;16.680;2024-03-06T08:05:59;32.20;;;28.60;;
85829;SDS011;76277;49.212;16.680;2024-03-06T08:08:44;32.20;;;28.60;;
85829;SDS011;76277;49.212;16.680;2024-03-06T08:11:28;32.20;;;28.60;;
85829;SDS011;76277;49.212;16.680;2024-03-06T08:14:13;30.30;;;26.90;;
85829;SDS011;76277;49.212;16.680;2024-03-06T08:16:58;30.30;;;26.90;;
85829;SDS011;76277;49.212;16.680;2024-03-06T08:19:42;30.30;;;26.90;;
85829;SDS011;76277;49.212;16.680;2024-03-06T08:22:27;30.30;;;26.90;;
85829;SDS011;76277;49.212;16.680;2024-03-06T08:25:12;30.30;;;26.90;;
85829;SDS011;76277;49.212;16.680;2024-03-06T08:27:56;31.00;;;27.50;;
85829;SDS011;76277;49.212;16.680;2024-03-06T08:30:41;31.00;;;27.50;;
85829;SDS011;76277;49.212;16.680;2024-03-06T08:33:26;31.00;;;27.50;;
85829;SDS011;76277;49.212;16.680;2024-03-06T08:36:10;31.00;;;27.50;;
85829;SDS011;76277;49.212;16.680;2024-03-06T08:38:55;31.00;;;27.50;;
85829;SDS011;76277;49.212;16.680;2024-03-06T08:41:40;31.00;;;27.50;;
85829;SDS011;76277;49.212;16.680;2024-03-06T08:44:24;27.90;;;24.80;;
85829;SDS011;76277;49.212;16.680;2024-03-06T08:47:09;27.90;;;24.80;;
85829;SDS011;76277;49.212;16.680;2024-03-06T08:49:54;27.90;;;24.80;;
85829;SDS011;76277;49.212;16.680;2024-03-06T08:52:39;27.90;;;24.80;;
85829;SDS011;76277;49.212;16.680;2024-03-06T08:55:23;27.90;;;24.80;;
85829;SDS011;76277;49.212;16.680;2024-03-06T08:58:07;30.90;;;27.40;;
85829;SDS011;76277;49.212;16.680;2024-03-06T09:00:53;30.90;;;27.40;;
85829;SDS011;76277;49.212;16.680;2024-03-06T09:03:37;30.90;;;27.40;;
85829;SDS011;76277;49.212;16.680;2024-03-06T09:06:21;30.90;;;27.40;;
85829;SDS011;76277;49.212;16.680;2024-03-06T09:09:06;30.90;;;27.40;;
85829;SDS011;76277;49.212;16.680;2024-03-06T09:11:51;30.90;;;27.40;;
85829;SDS011;76277;49.212;16.680;2024-03-06T09:14:36;26.30;;;23.40;;
85829;SDS011;76277;49.212;16.680;2024-03-06T09:17:20;26.30;;;23.40;;
85829;SDS011;76277;49.212;16.680;2024-03-06T09:20:05;26.30;;;23.40;;
85829;SDS011;76277;49.212;16.680;2024-03-06T09:22:49;26.30;;;23.40;;
85829;SDS011;76277;49.212;16.680;2024-03-06T09:25:35;26.30;;;23.40;;
85829;SDS011;76277;49.212;16.680;2024-03-06T09:28:19;21.80;;;19.40;;
85829;SDS011;76277;49.212;16.680;2024-03-06T09:31:04;21.80;;;19.40;;
85829;SDS011;76277;49.212;16.680;2024-03-06T09:33:48;21.80;;;19.40;;
85829;SDS011;76277;49.212;16.680;2024-03-06T09:36:33;21.80;;;19.40;;
85829;SDS011;76277;49.212;16.680;2024-03-06T09:39:18;21.80;;;19.40;;
85829;SDS011;76277;49.212;16.680;2024-03-06T09:42:02;21.80;;;19.40;;
85829;SDS011;76277;49.212;16.680;2024-03-06T09:44:47;28.60;;;25.40;;
85829;SDS011;76277;49.212;16.680;2024-03-06T09:47:33;28.60;;;25.40;;
85829;SDS011;76277;49.212;16.680;2024-03-06T09:50:16;28.60;;;25.40;;
85829;SDS011;76277;49.212;16.680;2024-03-06T09:53:02;28.60;;;25.40;;
85829;SDS011;76277;49.212;16.680;2024-03-06T09:55:46;28.60;;;25.40;;
85829;SDS011;76277;49.212;16.680;2024-03-06T09:58:30;28.80;;;21.60;;
85829;SDS011;76277;49.212;16.680;2024-03-06T10:01:16;28.80;;;21.60;;
85829;SDS011;76277;49.212;16.680;2024-03-06T10:06:46;28.80;;;21.60;;
85829;SDS011;76277;49.212;16.680;2024-03-06T10:09:30;28.80;;;21.60;;
85829;SDS011;76277;49.212;16.680;2024-03-06T10:12:17;26.80;;;23.90;;
85829;SDS011;76277;49.212;16.680;2024-03-06T10:14:58;26.80;;;23.90;;
85829;SDS011;76277;49.212;16.680;2024-03-06T10:17:43;26.80;;;23.90;;
85829;SDS011;76277;49.212;16.680;2024-03-06T10:20:27;26.80;;;23.90;;
85829;SDS011;76277;49.212;16.680;2024-03-06T10:23:12;26.80;;;23.90;;
85829;SDS011;76277;49.212;16.680;2024-03-06T10:25:57;26.80;;;23.90;;
85829;SDS011;76277;49.212;16.680;2024-03-06T10:28:44;26.10;;;23.20;;
85829;SDS011;76277;49.212;16.680;2024-03-06T10:31:27;26.10;;;23.20;;
85829;SDS011;76277;49.212;16.680;2024-03-06T10:34:11;26.10;;;23.20;;
85829;SDS011;76277;49.212;16.680;2024-03-06T10:36:57;26.10;;;23.20;;
85829;SDS011;76277;49.212;16.680;2024-03-06T10:39:42;26.10;;;23.20;;
85829;SDS011;76277;49.212;16.680;2024-03-06T10:42:27;24.40;;;21.70;;
85829;SDS011;76277;49.212;16.680;2024-03-06T10:45:13;24.40;;;21.70;;
85829;SDS011;76277;49.212;16.680;2024-03-06T10:50:40;24.40;;;21.70;;
85829;SDS011;76277;49.212;16.680;2024-03-06T10:53:25;24.40;;;21.70;;
85829;SDS011;76277;49.212;16.680;2024-03-06T10:56:08;24.40;;;21.70;;
85829;SDS011;76277;49.212;16.680;2024-03-06T10:58:56;24.30;;;21.60;;
85829;SDS011;76277;49.212;16.680;2024-03-06T11:01:39;24.30;;;21.60;;
85829;SDS011;76277;49.212;16.680;2024-03-06T11:04:25;24.30;;;21.60;;
85829;SDS011;76277;49.212;16.680;2024-03-06T11:07:08;24.30;;;21.60;;
85829;SDS011;76277;49.212;16.680;2024-03-06T11:09:51;24.30;;;21.60;;
85829;SDS011;76277;49.212;16.680;2024-03-06T11:12:38;22.80;;;20.30;;
85829;SDS011;76277;49.212;16.680;2024-03-06T11:15:21;22.80;;;20.30;;
85829;SDS011;76277;49.212;16.680;2024-03-06T11:20:50;22.80;;;20.30;;
85829;SDS011;76277;49.212;16.680;2024-03-06T11:23:35;22.80;;;20.30;;
85829;SDS011;76277;49.212;16.680;2024-03-06T11:26:20;22.80;;;20.30;;
85829;SDS011;76277;49.212;16.680;2024-03-06T11:29:04;22.10;;;19.60;;
85829;SDS011;76277;49.212;16.680;2024-03-06T11:32:03;22.10;;;19.60;;
85829;SDS011;76277;49.212;16.680;2024-03-06T11:34:34;22.10;;;19.60;;
85829;SDS011;76277;49.212;16.680;2024-03-06T11:37:21;22.10;;;19.60;;
85829;SDS011;76277;49.212;16.680;2024-03-06T11:40:03;22.10;;;19.60;;
85829;SDS011;76277;49.212;16.680;2024-03-06T11:42:47;28.00;;;24.90;;
85829;SDS011;76277;49.212;16.680;2024-03-06T11:45:43;28.00;;;24.90;;
85829;SDS011;76277;49.212;16.680;2024-03-06T11:48:18;28.00;;;24.90;;
85829;SDS011;76277;49.212;16.680;2024-03-06T11:51:02;28.00;;;24.90;;
85829;SDS011;76277;49.212;16.680;2024-03-06T11:53:49;28.00;;;24.90;;
85829;SDS011;76277;49.212;16.680;2024-03-06T11:56:31;28.00;;;24.90;;
85829;SDS011;76277;49.212;16.680;2024-03-06T11:59:15;22.10;;;19.60;;
85829;SDS011;76277;49.212;16.680;2024-03-06T12:02:01;22.10;;;19.60;;
85829;SDS011;76277;49.212;16.680;2024-03-06T12:04:45;22.10;;;19.60;;
85829;SDS011;76277;49.212;16.680;2024-03-06T12:07:29;22.10;;;19.60;;
85829;SDS011;76277;49.212;16.680;2024-03-06T12:10:16;22.10;;;19.60;;
85829;SDS011;76277;49.212;16.680;2024-03-06T12:12:59;24.80;;;22.10;;
85829;SDS011;76277;49.212;16.680;2024-03-06T12:15:43;24.80;;;22.10;;
85829;SDS011;76277;49.212;16.680;2024-03-06T12:18:28;24.80;;;22.10;;
85829;SDS011;76277;49.212;16.680;2024-03-06T12:21:14;24.80;;;22.10;;
85829;SDS011;76277;49.212;16.680;2024-03-06T12:24:05;24.80;;;22.10;;
85829;SDS011;76277;49.212;16.680;2024-03-06T12:26:42;24.80;;;22.10;;
85829;SDS011;76277;49.212;16.680;2024-03-06T12:29:29;22.80;;;15.70;;
85829;SDS011;76277;49.212;16.680;2024-03-06T12:32:19;22.80;;;15.70;;
85829;SDS011;76277;49.212;16.680;2024-03-06T12:34:56;22.80;;;15.70;;
85829;SDS011;76277;49.212;16.680;2024-03-06T12:37:40;22.80;;;15.70;;
85829;SDS011;76277;49.212;16.680;2024-03-06T12:40:26;22.80;;;15.70;;
85829;SDS011;76277;49.212;16.680;2024-03-06T12:43:10;19.70;;;17.50;;
85829;SDS011;76277;49.212;16.680;2024-03-06T12:45:55;19.70;;;17.50;;
85829;SDS011;76277;49.212;16.680;2024-03-06T12:48:39;19.70;;;17.50;;
85829;SDS011;76277;49.212;16.680;2024-03-06T12:51:24;19.70;;;17.50;;
85829;SDS011;76277;49.212;16.680;2024-03-06T12:54:08;19.70;;;17.50;;
85829;SDS011;76277;49.212;16.680;2024-03-06T12:56:53;19.70;;;17.50;;
85829;SDS011;76277;49.212;16.680;2024-03-06T12:59:38;20.60;;;18.30;;
85829;SDS011;76277;49.212;16.680;2024-03-06T13:02:23;20.60;;;18.30;;
85829;SDS011;76277;49.212;16.680;2024-03-06T13:07:52;20.60;;;18.30;;
85829;SDS011;76277;49.212;16.680;2024-03-06T13:10:37;20.60;;;18.30;;
85829;SDS011;76277;49.212;16.680;2024-03-06T13:13:21;21.60;;;19.20;;
85829;SDS011;76277;49.212;16.680;2024-03-06T13:16:06;21.60;;;19.20;;
85829;SDS011;76277;49.212;16.680;2024-03-06T13:18:51;21.60;;;19.20;;
85829;SDS011;76277;49.212;16.680;2024-03-06T13:21:35;21.60;;;19.20;;
85829;SDS011;76277;49.212;16.680;2024-03-06T13:24:20;21.60;;;19.20;;
85829;SDS011;76277;49.212;16.680;2024-03-06T13:27:05;21.60;;;19.20;;
85829;SDS011;76277;49.212;16.680;2024-03-06T13:29:49;21.50;;;19.10;;
85829;SDS011;76277;49.212;16.680;2024-03-06T13:32:34;21.50;;;19.10;;
85829;SDS011;76277;49.212;16.680;2024-03-06T13:35:19;21.50;;;19.10;;
85829;SDS011;76277;49.212;16.680;2024-03-06T13:38:03;21.50;;;19.10;;
85829;SDS011;76277;49.212;16.680;2024-03-06T13:40:48;21.50;;;19.10;;
85829;SDS011;76277;49.212;16.680;2024-03-06T13:43:32;24.30;;;21.60;;
85829;SDS011;76277;49.212;16.680;2024-03-06T13:46:17;24.30;;;21.60;;
85829;SDS011;76277;49.212;16.680;2024-03-06T13:49:02;24.30;;;21.60;;
85829;SDS011;76277;49.212;16.680;2024-03-06T13:51:46;24.30;;;21.60;;
85829;SDS011;76277;49.212;16.680;2024-03-06T13:54:31;24.30;;;21.60;;
85829;SDS011;76277;49.212;16.680;2024-03-06T13:57:16;24.30;;;21.60;;
85829;SDS011;76277;49.212;16.680;2024-03-06T14:00:01;21.30;;;19.00;;
85829;SDS011;76277;49.212;16.680;2024-03-06T14:02:45;21.30;;;19.00;;
85829;SDS011;76277;49.212;16.680;2024-03-06T14:05:30;21.30;;;19.00;;
85829;SDS011;76277;49.212;16.680;2024-03-06T14:08:15;21.30;;;19.00;;
85829;SDS011;76277;49.212;16.680;2024-03-06T14:10:59;21.30;;;19.00;;
85829;SDS011;76277;49.212;16.680;2024-03-06T14:13:44;18.90;;;16.80;;
85829;SDS011;76277;49.212;16.680;2024-03-06T14:16:28;18.90;;;16.80;;
85829;SDS011;76277;49.212;16.680;2024-03-06T14:19:13;18.90;;;16.80;;
85829;SDS011;76277;49.212;16.680;2024-03-06T14:21:58;18.90;;;16.80;;
85829;SDS011;76277;49.212;16.680;2024-03-06T14:24:46;18.90;;;16.80;;
85829;SDS011;76277;49.212;16.680;2024-03-06T14:27:28;18.90;;;16.80;;
85829;SDS011;76277;49.212;16.680;2024-03-06T14:30:13;26.10;;;18.90;;
85829;SDS011;76277;49.212;16.680;2024-03-06T14:32:57;26.10;;;18.90;;
85829;SDS011;76277;49.212;16.680;2024-03-06T14:35:41;26.10;;;18.90;;
85829;SDS011;76277;49.212;16.680;2024-03-06T14:38:27;26.10;;;18.90;;
85829;SDS011;76277;49.212;16.680;2024-03-06T14:41:10;26.10;;;18.90;;
85829;SDS011;76277;49.212;16.680;2024-03-06T14:43:55;18.40;;;16.40;;
85829;SDS011;76277;49.212;16.680;2024-03-06T14:46:40;18.40;;;16.40;;
85829;SDS011;76277;49.212;16.680;2024-03-06T14:49:25;18.40;;;16.40;;
85829;SDS011;76277;49.212;16.680;2024-03-06T14:52:09;18.40;;;16.40;;
85829;SDS011;76277;49.212;16.680;2024-03-06T14:54:54;18.40;;;16.40;;
85829;SDS011;76277;49.212;16.680;2024-03-06T14:57:39;18.40;;;16.40;;
85829;SDS011;76277;49.212;16.680;2024-03-06T15:00:23;18.20;;;16.20;;
85829;SDS011;76277;49.212;16.680;2024-03-06T15:03:08;18.20;;;16.20;;
85829;SDS011;76277;49.212;16.680;2024-03-06T15:05:52;18.20;;;16.20;;
85829;SDS011;76277;49.212;16.680;2024-03-06T15:08:37;18.20;;;16.20;;
85829;SDS011;76277;49.212;16.680;2024-03-06T15:11:22;18.20;;;16.20;;
85829;SDS011;76277;49.212;16.680;2024-03-06T15:14:07;21.20;;;18.80;;
85829;SDS011;76277;49.212;16.680;2024-03-06T15:16:51;21.20;;;18.80;;
85829;SDS011;76277;49.212;16.680;2024-03-06T15:19:36;21.20;;;18.80;;
85829;SDS011;76277;49.212;16.680;2024-03-06T15:22:20;21.20;;;18.80;;
85829;SDS011;76277;49.212;16.680;2024-03-06T15:25:05;21.20;;;18.80;;
85829;SDS011;76277;49.212;16.680;2024-03-06T15:27:50;21.20;;;18.80;;
85829;SDS011;76277;49.212;16.680;2024-03-06T15:30:34;20.90;;;18.50;;
85829;SDS011;76277;49.212;16.680;2024-03-06T15:33:19;20.90;;;18.50;;
85829;SDS011;76277;49.212;16.680;2024-03-06T15:36:05;20.90;;;18.50;;
85829;SDS011;76277;49.212;16.680;2024-03-06T15:38:49;20.90;;;18.50;;
85829;SDS011;76277;49.212;16.680;2024-03-06T15:41:33;20.90;;;18.50;;
85829;SDS011;76277;49.212;16.680;2024-03-06T15:44:18;19.90;;;17.60;;
85829;SDS011;76277;49.212;16.680;2024-03-06T15:47:03;19.90;;;17.60;;
85829;SDS011;76277;49.212;16.680;2024-03-06T15:49:47;19.90;;;17.60;;
85829;SDS011;76277;49.212;16.680;2024-03-06T15:52:32;19.90;;;17.60;;
85829;SDS011;76277;49.212;16.680;2024-03-06T15:55:16;19.90;;;17.60;;
85829;SDS011;76277;49.212;16.680;2024-03-06T15:58:01;19.90;;;17.60;;
85829;SDS011;76277;49.212;16.680;2024-03-06T16:00:46;19.20;;;17.00;;
85829;SDS011;76277;49.212;16.680;2024-03-06T16:03:31;19.20;;;17.00;;
85829;SDS011;76277;49.212;16.680;2024-03-06T16:06:15;19.20;;;17.00;;